createdAt,value
2022-08-07T00:08:59.217Z,18.84
2022-08-07T00:20:03.601Z,18.74
2022-08-07T00:31:06.149Z,18.64
2022-08-07T00:42:08.167Z,18.64
2022-08-07T00:53:04.479Z,18.55
2022-08-07T01:04:05.730Z,18.64
2022-08-07T01:15:11.802Z,18.64
2022-08-07T01:26:13.782Z,18.64
2022-08-07T01:37:19.072Z,18.55
2022-08-07T01:48:29.868Z,18.06
2022-08-07T01:59:24.551Z,17.76
2022-08-07T02:10:05.915Z,17.76
2022-08-07T02:20:42.567Z,17.57
2022-08-07T02:31:44.259Z,17.57
2022-08-07T02:42:48.077Z,17.67
2022-08-07T02:53:49.023Z,17.47
2022-08-07T03:04:40.580Z,17.37
2022-08-07T03:15:47.855Z,17.37
2022-08-07T03:26:50.928Z,17.27
2022-08-07T03:37:46.214Z,17.18
2022-08-07T03:48:33.200Z,16.88
2022-08-07T03:59:34.393Z,16.69
2022-08-07T04:10:34.648Z,16.59
2022-08-07T04:21:34.005Z,16.59
2022-08-07T04:32:34.682Z,16.69
2022-08-07T04:44:10.045Z,16.79
2022-08-07T04:54:42.151Z,16.88
2022-08-07T05:05:53.130Z,17.08
2022-08-07T05:16:52.964Z,17.27
2022-08-07T05:28:03.046Z,17.37
2022-08-07T05:40:06.492Z,17.47
2022-08-07T05:50:03.018Z,17.67
2022-08-07T06:00:50.942Z,18.06
2022-08-07T06:11:50.773Z,18.35
2022-08-07T06:22:50.667Z,18.45
2022-08-07T06:33:44.754Z,18.64
2022-08-07T06:44:44.331Z,18.94
2022-08-07T06:55:59.945Z,19.03
2022-08-07T07:07:00.661Z,19.82
2022-08-07T07:17:52.338Z,20.31
2022-08-07T07:29:38.401Z,20.40
2022-08-07T07:39:52.149Z,20.99
2022-08-07T07:50:39.119Z,20.99
2022-08-07T08:02:03.732Z,21.09
2022-08-07T08:12:42.924Z,21.38
2022-08-07T08:23:21.875Z,21.38
2022-08-07T08:34:29.005Z,21.97
2022-08-07T08:45:58.637Z,22.75
2022-08-07T08:56:06.979Z,23.14
2022-08-07T09:07:01.095Z,23.34
2022-08-07T09:18:10.086Z,23.04
2022-08-07T09:30:04.532Z,23.44
2022-08-07T09:40:24.125Z,24.02
2022-08-07T09:52:10.622Z,24.22
2022-08-07T10:02:24.312Z,24.51
2022-08-07T10:13:55.266Z,24.81
2022-08-07T10:24:33.364Z,25.88
2022-08-07T10:35:55.700Z,26.56
2022-08-07T10:46:21.297Z,27.84
2022-08-07T10:57:15.732Z,27.25
2022-08-07T11:08:11.875Z,27.44
2022-08-07T11:18:52.961Z,27.83
2022-08-07T11:29:42.131Z,29.30
2022-08-07T11:40:41.839Z,27.84
2022-08-07T11:51:41.343Z,27.35
2022-08-07T12:02:30.235Z,28.52
2022-08-07T12:13:35.952Z,29.50
2022-08-07T12:24:37.283Z,28.42
2022-08-07T12:35:16.870Z,26.76
2022-08-07T12:46:09.354Z,26.07
2022-08-07T12:57:09.913Z,25.68
2022-08-07T13:08:13.494Z,25.29
2022-08-07T13:19:11.384Z,25.88
2022-08-07T13:30:19.667Z,25.78
2022-08-07T13:41:10.016Z,25.39
2022-08-07T13:52:26.546Z,25.88
2022-08-07T14:03:10.557Z,25.59
2022-08-07T14:14:12.109Z,25.39
2022-08-07T14:25:08.117Z,25.29
2022-08-07T14:35:47.509Z,25.00
2022-08-07T14:46:56.499Z,25.29
2022-08-07T14:57:54.826Z,25.78
2022-08-07T15:08:50.337Z,26.07
2022-08-07T15:20:31.053Z,25.98
2022-08-07T15:30:59.473Z,25.78
2022-08-07T15:42:45.245Z,25.20
2022-08-07T15:52:51.761Z,25.00
2022-08-07T16:03:58.605Z,24.41
2022-08-07T16:14:59.980Z,23.83
2022-08-07T16:26:03.022Z,23.53
2022-08-07T16:38:05.498Z,23.24
2022-08-07T16:48:15.453Z,23.24
2022-08-07T16:59:10.711Z,23.04
2022-08-07T17:10:32.689Z,22.75
2022-08-07T17:21:18.405Z,22.56
2022-08-07T17:32:13.949Z,22.56
2022-08-07T17:43:14.877Z,22.26
2022-08-07T17:54:11.508Z,22.07
2022-08-07T18:04:57.381Z,21.77
2022-08-07T18:15:44.479Z,21.58
2022-08-07T18:26:28.683Z,21.38
2022-08-07T18:38:58.250Z,20.99
2022-08-07T18:50:04.704Z,20.60
2022-08-07T18:59:08.951Z,20.60
2022-08-07T19:10:02.800Z,20.21
2022-08-07T19:21:10.052Z,20.01
2022-08-07T19:32:17.415Z,19.72
2022-08-07T19:42:56.972Z,19.62
2022-08-07T19:54:32.105Z,19.52
2022-08-07T20:05:00.477Z,19.33
2022-08-07T20:15:59.563Z,19.23
2022-08-07T20:27:00.724Z,19.23
2022-08-07T20:37:59.078Z,19.13
2022-08-07T20:49:59.944Z,19.03
2022-08-07T21:00:09.233Z,19.04
2022-08-07T21:11:10.898Z,19.04
2022-08-07T21:22:07.700Z,19.13
2022-08-07T21:33:08.855Z,19.13
2022-08-07T21:44:14.573Z,19.13
2022-08-07T21:55:27.750Z,19.13
2022-08-07T22:06:28.777Z,19.03
2022-08-07T22:17:24.240Z,19.03
2022-08-07T22:28:32.199Z,19.03
2022-08-07T22:39:28.235Z,19.04
2022-08-07T22:50:29.119Z,18.94
2022-08-07T23:01:49.325Z,18.94
2022-08-07T23:12:39.987Z,18.74
2022-08-07T23:24:05.357Z,18.64
2022-08-07T23:34:41.906Z,18.64
2022-08-07T23:46:03.675Z,18.55
2022-08-07T23:56:54.101Z,18.54
